Time;durP1;ratioP1;P1;durP2;ratioP2;P2;SDS_P1;SDS_P2;PMS_P1;PMS_P2;Temp;Humidity;BMP_temperature;BMP_pressure;BME280_temperature;BME280_humidity;BME280_pressure;Samples;Min_cycle;Max_cycle;Signal;HPM_P1;HPM_P2
2022/12/07 00:00:03;;;;;;;9.98;1.85;;;5.30;99.90;;;;;;5153951;27;20041;-72
2022/12/07 00:02:30;;;;;;;12.23;1.45;;;5.30;99.90;;;;;;5154177;27;20479;-72
2022/12/07 00:04:56;;;;;;;10.38;1.38;;;5.40;99.90;;;;;;5135299;27;20399;-73
2022/12/07 00:07:21;;;;;;;5.97;1.05;;;5.70;99.90;;;;;;5153554;27;20125;-72
2022/12/07 00:09:47;;;;;;;2.65;0.80;;;5.30;99.90;;;;;;5153669;27;20086;-72
2022/12/07 00:12:12;;;;;;;2.83;0.68;;;5.60;99.90;;;;;;5135541;27;20053;-72
2022/12/07 00:14:38;;;;;;;6.25;0.95;;;5.40;99.90;;;;;;5135463;27;20490;-72
2022/12/07 00:17:04;;;;;;;6.32;1.77;;;5.00;99.90;;;;;;5135434;27;20633;-71
2022/12/07 00:19:29;;;;;;;7.70;1.25;;;5.10;99.90;;;;;;5153564;27;20092;-74
2022/12/07 00:21:55;;;;;;;9.13;1.80;;;5.40;99.90;;;;;;5135099;27;20091;-72
2022/12/07 00:24:21;;;;;;;9.20;1.50;;;5.70;99.90;;;;;;5153796;27;20497;-72
2022/12/07 00:26:46;;;;;;;4.18;1.10;;;5.20;99.90;;;;;;5135220;27;20102;-73
2022/12/07 00:29:19;;;;;;;7.72;1.55;;;5.60;99.90;;;;;;5135014;27;20533;-73
2022/12/07 00:31:45;;;;;;;13.43;1.55;;;5.30;99.90;;;;;;5153606;27;20459;-72
2022/12/07 00:34:17;;;;;;;3.70;1.00;;;5.50;99.90;;;;;;5134799;27;20158;-73
2022/12/07 00:36:43;;;;;;;10.20;1.50;;;5.50;99.90;;;;;;5153376;27;20074;-70
2022/12/07 00:39:08;;;;;;;13.15;1.45;;;5.60;99.90;;;;;;5135057;27;20124;-70
2022/12/07 00:41:34;;;;;;;7.25;1.20;;;5.80;99.90;;;;;;5134939;27;20050;-70
2022/12/07 00:44:00;;;;;;;6.05;1.08;;;5.50;99.90;;;;;;5153313;27;20043;-70
2022/12/07 00:46:26;;;;;;;5.15;1.10;;;5.30;99.90;;;;;;5153540;27;20047;-70
2022/12/07 00:48:52;;;;;;;;;;;5.30;99.90;;;;;;5153383;27;20039;-70
2022/12/07 00:51:20;;;;;;;11.95;1.60;;;5.30;99.90;;;;;;5153273;27;19946;-71
2022/12/07 00:53:46;;;;;;;10.32;1.25;;;5.60;99.90;;;;;;5153379;27;20043;-70
2022/12/07 00:56:14;;;;;;;10.40;1.45;;;5.20;99.90;;;;;;5134844;27;20047;-70
2022/12/07 00:58:40;;;;;;;8.70;1.40;;;5.10;99.90;;;;;;5153239;27;20050;-70
2022/12/07 01:01:08;;;;;;;9.13;1.50;;;5.00;99.90;;;;;;5153313;27;20368;-70
2022/12/07 01:03:33;;;;;;;10.98;1.50;;;5.40;99.90;;;;;;5134790;27;20455;-74
2022/12/07 01:05:59;;;;;;;11.20;1.70;;;5.20;99.90;;;;;;5153440;27;20112;-72
2022/12/07 01:08:26;;;;;;;17.10;1.67;;;5.50;99.90;;;;;;5153229;27;20125;-71
2022/12/07 01:11:06;;;;;;;19.40;2.50;;;5.50;99.90;;;;;;5134949;27;20449;-71
2022/12/07 01:13:34;;;;;;;12.65;1.65;;;5.40;99.90;;;;;;5134946;27;20103;-72
2022/12/07 01:16:01;;;;;;;14.43;2.13;;;5.40;99.90;;;;;;5153257;27;20054;-72
2022/12/07 01:18:28;;;;;;;14.13;2.10;;;5.20;99.90;;;;;;5134606;27;20474;-73
2022/12/07 01:21:05;;;;;;;9.48;1.60;;;;;;;;;;5153211;27;20098;-72
2022/12/07 01:23:32;;;;;;;18.67;2.55;;;5.20;99.90;;;;;;5153157;27;20061;-72
2022/12/07 01:26:00;;;;;;;10.65;1.80;;;5.20;99.90;;;;;;5153188;27;20436;-72
2022/12/07 01:28:26;;;;;;;5.22;1.23;;;5.50;99.90;;;;;;5153114;27;20396;-73
2022/12/07 01:31:14;;;;;;;8.52;1.50;;;5.40;99.90;;;;;;5152982;27;20058;-73
2022/12/07 01:33:42;;;;;;;6.80;1.42;;;5.80;99.90;;;;;;5152894;27;20051;-74
2022/12/07 01:36:12;;;;;;;10.27;1.42;;;5.50;99.90;;;;;;5134497;27;20046;-73
2022/12/07 01:38:38;;;;;;;17.05;1.98;;;5.40;99.90;;;;;;5153173;27;20129;-74
2022/12/07 01:41:04;;;;;;;8.98;1.48;;;5.50;99.90;;;;;;5117706;27;20534;-73
2022/12/07 01:43:31;;;;;;;7.28;1.23;;;5.30;99.90;;;;;;5153307;27;20045;-73
2022/12/07 01:45:57;;;;;;;7.10;1.10;;;5.40;99.90;;;;;;5153152;27;20089;-74
2022/12/07 01:48:37;;;;;;;7.60;1.30;;;5.30;99.90;;;;;;5134397;27;20133;-73
2022/12/07 01:51:10;;;;;;;7.90;1.30;;;5.40;99.90;;;;;;5152980;27;20043;-73
2022/12/07 01:53:39;;;;;;;8.48;1.38;;;5.30;99.90;;;;;;5137547;27;20739;-74
2022/12/07 01:56:08;;;;;;;13.15;1.40;;;5.20;99.90;;;;;;5156562;27;20045;-74
2022/12/07 01:58:34;;;;;;;7.57;1.40;;;5.20;99.90;;;;;;5156510;27;20043;-74
2022/12/07 02:01:00;;;;;;;;;;;5.40;99.90;;;;;;5156523;27;20125;-74
2022/12/07 02:03:44;;;;;;;9.90;1.75;;;5.30;99.90;;;;;;5156430;27;20341;-74
2022/12/07 02:06:12;;;;;;;11.00;1.48;;;5.50;99.90;;;;;;5137878;27;20066;-73
2022/12/07 02:08:38;;;;;;;13.65;1.98;;;5.50;99.90;;;;;;5137876;27;20090;-73
2022/12/07 02:11:06;;;;;;;11.27;1.75;;;5.60;99.90;;;;;;5137784;27;20107;-72
2022/12/07 02:13:35;;;;;;;5.38;1.52;;;5.50;99.90;;;;;;5156240;27;20050;-71
2022/12/07 02:16:28;;;;;;;9.45;1.42;;;5.50;99.90;;;;;;5155924;27;20039;-72
2022/12/07 02:19:09;;;;;;;10.30;1.58;;;5.60;99.90;;;;;;5156141;27;20122;-68
2022/12/07 02:21:38;;;;;;;3.58;1.02;;;5.10;99.90;;;;;;5156211;27;20042;-70
2022/12/07 02:24:12;;;;;;;4.65;0.98;;;4.90;99.90;;;;;;5137646;27;20050;-72
2022/12/07 02:26:49;;;;;;;6.07;1.17;;;4.80;99.90;;;;;;5156104;27;20149;-72
2022/12/07 02:29:27;;;;;;;8.40;1.17;;;4.80;99.90;;;;;;5155884;27;20039;-73
2022/12/07 02:32:39;;;;;;;6.40;1.10;;;5.00;99.90;;;;;;5155531;27;20051;-73
2022/12/07 02:35:27;;;;;;;8.05;1.00;;;4.70;99.90;;;;;;5132853;27;20146;-73
2022/12/07 02:38:26;;;;;;;4.45;1.10;;;5.10;99.90;;;;;;5137134;27;20109;-71
2022/12/07 02:41:17;;;;;;;7.25;1.10;;;4.70;99.90;;;;;;5155615;27;20072;-75
2022/12/07 02:43:50;;;;;;;6.68;1.00;;;4.50;99.90;;;;;;5155644;27;20046;-73
2022/12/07 02:46:33;;;;;;;4.78;1.17;;;4.70;99.90;;;;;;5155368;27;20089;-74
2022/12/07 02:48:59;;;;;;;5.57;1.10;;;4.50;99.90;;;;;;5136930;27;20046;-74
2022/12/07 02:51:26;;;;;;;4.82;1.35;;;4.50;99.90;;;;;;5155464;27;20053;-74
2022/12/07 02:53:51;;;;;;;5.40;1.10;;;4.50;99.90;;;;;;5136881;27;20051;-75
2022/12/07 02:56:41;;;;;;;13.02;1.50;;;4.40;99.90;;;;;;5155358;27;20042;-76
2022/12/07 02:59:19;;;;;;;10.15;1.55;;;;;;;;;;5136850;27;20372;-77
2022/12/07 03:02:00;;;;;;;11.63;2.20;;;4.60;99.90;;;;;;5155278;27;20372;-75
2022/12/07 03:04:34;;;;;;;8.63;1.77;;;;;;;;;;5155201;27;20051;-77
2022/12/07 03:07:21;;;;;;;9.23;1.30;;;4.90;99.90;;;;;;5155193;27;20526;-77
2022/12/07 03:09:56;;;;;;;7.23;1.47;;;;;;;;;;5155148;27;20035;-77
2022/12/07 03:12:50;;;;;;;12.98;1.77;;;4.30;99.90;;;;;;5155083;27;20047;-78
2022/12/07 03:15:29;;;;;;;7.40;1.85;;;4.30;99.90;;;;;;5118172;27;20061;-78
2022/12/07 03:17:57;;;;;;;9.23;1.23;;;4.40;99.90;;;;;;5136759;27;20486;-78
2022/12/07 03:20:26;;;;;;;5.63;1.35;;;4.50;99.90;;;;;;5154891;27;20039;-78
2022/12/07 03:22:53;;;;;;;8.60;1.13;;;4.30;99.90;;;;;;5154856;27;20053;-78
2022/12/07 03:25:19;;;;;;;14.50;1.55;;;4.10;99.90;;;;;;5154846;27;20051;-78
2022/12/07 03:27:59;;;;;;;10.32;1.63;;;3.90;99.90;;;;;;5154847;27;20046;-78
2022/12/07 03:30:57;;;;;;;7.60;1.50;;;4.30;99.90;;;;;;5154549;27;20070;-79
2022/12/07 03:33:31;;;;;;;20.05;2.10;;;4.40;99.90;;;;;;5153621;27;20491;-77
2022/12/07 03:36:04;;;;;;;7.85;1.50;;;4.70;99.90;;;;;;5154686;27;20035;-80
2022/12/07 03:39:00;;;;;;;11.65;1.77;;;4.60;99.90;;;;;;5119482;27;20050;-78
2022/12/07 03:41:30;;;;;;;14.85;1.67;;;4.70;99.90;;;;;;5154643;27;20042;-79
2022/12/07 03:43:57;;;;;;;5.43;1.02;;;4.80;99.90;;;;;;5154314;27;20107;-78
2022/12/07 03:46:41;;;;;;;8.30;1.42;;;5.00;99.90;;;;;;5118944;27;20470;-79
2022/12/07 03:49:30;;;;;;;12.02;1.60;;;4.90;99.90;;;;;;5135949;27;20042;-78
2022/12/07 03:52:17;;;;;;;8.32;1.20;;;;;;;;;;5136031;27;20394;-78
2022/12/07 03:54:52;;;;;;;9.85;1.90;;;4.80;99.90;;;;;;5154395;27;20103;-78
2022/12/07 03:57:19;;;;;;;10.02;1.52;;;4.70;99.90;;;;;;5135679;27;20099;-78
2022/12/07 03:59:46;;;;;;;19.35;1.65;;;5.20;99.90;;;;;;5154168;27;20035;-78
2022/12/07 04:02:13;;;;;;;14.07;1.55;;;5.10;99.90;;;;;;5154117;27;20500;-78
2022/12/07 04:04:39;;;;;;;12.40;1.55;;;5.20;99.90;;;;;;5154081;27;20050;-77
2022/12/07 04:07:05;;;;;;;13.90;1.80;;;4.90;99.90;;;;;;5135687;27;20039;-77
2022/12/07 04:09:31;;;;;;;9.02;1.88;;;4.90;99.90;;;;;;5153929;27;20049;-77
2022/12/07 04:11:56;;;;;;;16.08;1.95;;;4.90;99.90;;;;;;5135387;27;20133;-77
2022/12/07 04:14:22;;;;;;;9.63;1.63;;;5.10;99.90;;;;;;5135120;27;20055;-78
2022/12/07 04:16:56;;;;;;;11.75;1.50;;;4.80;99.90;;;;;;5153465;27;20129;-79
2022/12/07 04:19:25;;;;;;;8.30;1.60;;;5.30;99.90;;;;;;5135698;27;20104;-81
2022/12/07 04:21:51;;;;;;;13.77;1.80;;;5.20;99.90;;;;;;5153885;27;20118;-80
2022/12/07 04:24:16;;;;;;;18.17;1.80;;;5.20;99.90;;;;;;5135420;27;20547;-80
2022/12/07 04:26:44;;;;;;;11.98;2.17;;;5.20;99.90;;;;;;5135188;27;20046;-79
2022/12/07 04:29:10;;;;;;;12.65;1.88;;;5.10;99.90;;;;;;5153370;27;20498;-80
2022/12/07 04:31:36;;;;;;;11.35;1.73;;;5.20;99.90;;;;;;5153641;27;20051;-79
2022/12/07 04:34:03;;;;;;;13.85;1.75;;;5.20;99.90;;;;;;5135359;27;20079;-79
2022/12/07 04:36:29;;;;;;;9.85;1.42;;;5.20;99.90;;;;;;5153648;27;20078;-79
2022/12/07 04:38:56;;;;;;;11.95;1.95;;;;;;;;;;5153617;27;20521;-80
2022/12/07 04:41:26;;;;;;;15.45;2.20;;;4.90;99.90;;;;;;5135049;27;20125;-80
2022/12/07 04:44:00;;;;;;;11.05;1.77;;;5.00;99.90;;;;;;5153563;27;20051;-80
2022/12/07 04:46:28;;;;;;;15.98;1.77;;;4.90;99.90;;;;;;5153694;27;20459;-80
2022/12/07 04:48:54;;;;;;;14.23;1.80;;;4.60;99.90;;;;;;5153101;27;20491;-79
2022/12/07 04:51:22;;;;;;;15.60;2.42;;;4.70;99.90;;;;;;5153473;27;20058;-79
2022/12/07 04:53:48;;;;;;;20.52;2.35;;;4.40;99.90;;;;;;5153542;27;20051;-79
2022/12/07 04:56:15;;;;;;;17.67;2.05;;;4.50;99.90;;;;;;5134906;27;20091;-79
2022/12/07 04:58:42;;;;;;;12.82;2.10;;;4.50;99.90;;;;;;5153457;27;20047;-80
2022/12/07 05:01:08;;;;;;;16.17;2.28;;;4.40;99.90;;;;;;5153467;27;20413;-79
2022/12/07 05:03:36;;;;;;;15.43;1.90;;;4.30;99.90;;;;;;5153471;27;20398;-80
2022/12/07 05:06:02;;;;;;;12.27;1.58;;;4.30;99.90;;;;;;5135107;27;20043;-79
2022/12/07 05:08:27;;;;;;;19.38;2.00;;;4.70;99.90;;;;;;5153372;27;20054;-79
2022/12/07 05:10:53;;;;;;;9.38;1.73;;;4.60;99.90;;;;;;5153012;27;20097;-80
2022/12/07 05:13:19;;;;;;;15.45;2.03;;;4.80;99.90;;;;;;5117946;27;20046;-81
2022/12/07 05:15:46;;;;;;;20.02;2.05;;;4.70;99.90;;;;;;5153620;27;20047;-80
2022/12/07 05:18:12;;;;;;;15.52;2.20;;;4.80;99.90;;;;;;5153198;27;20126;-81
2022/12/07 05:20:39;;;;;;;10.20;1.75;;;5.00;99.90;;;;;;5153268;27;20158;-80
2022/12/07 05:23:05;;;;;;;14.10;1.70;;;4.80;99.90;;;;;;5153230;27;20047;-80
2022/12/07 05:25:30;;;;;;;14.85;2.00;;;5.00;99.90;;;;;;5134703;27;20091;-80
2022/12/07 05:27:56;;;;;;;9.13;1.48;;;4.80;99.90;;;;;;5155565;27;20074;-80
2022/12/07 05:30:23;;;;;;;8.90;2.05;;;4.90;99.90;;;;;;5157004;27;20053;-79
2022/12/07 05:32:49;;;;;;;7.50;1.58;;;4.70;99.90;;;;;;5138480;27;20108;-80
2022/12/07 05:35:15;;;;;;;11.73;1.80;;;4.80;99.90;;;;;;5138656;27;20050;-81
2022/12/07 05:37:41;;;;;;;12.80;1.80;;;4.60;99.90;;;;;;5138635;27;20134;-79
2022/12/07 05:40:07;;;;;;;9.02;1.60;;;;;;;;;;5156732;27;20498;-78
2022/12/07 05:42:33;;;;;;;;;;;4.70;99.90;;;;;;5157005;27;20482;-78
2022/12/07 05:44:58;;;;;;;17.88;1.90;;;4.30;99.90;;;;;;5138494;27;19934;-79
2022/12/07 05:47:24;;;;;;;18.63;2.65;;;4.50;99.90;;;;;;5156821;27;20484;-81
2022/12/07 05:49:50;;;;;;;18.75;2.22;;;4.70;99.90;;;;;;5156717;27;20471;-79
2022/12/07 05:52:16;;;;;;;17.15;2.13;;;4.40;99.90;;;;;;5156728;27;20054;-81
2022/12/07 05:54:42;;;;;;;11.88;1.80;;;;;;;;;;5138042;27;20035;-80
2022/12/07 05:57:07;;;;;;;14.88;1.75;;;4.40;99.90;;;;;;5156597;27;20078;-80
2022/12/07 05:59:33;;;;;;;7.38;1.30;;;4.30;99.90;;;;;;5156572;27;20832;-80
2022/12/07 06:02:00;;;;;;;8.32;1.27;;;4.50;99.90;;;;;;5156568;27;20062;-80
2022/12/07 06:04:28;;;;;;;4.43;1.23;;;;;;;;;;5156492;27;20099;-80
2022/12/07 06:06:54;;;;;;;8.73;1.60;;;4.40;99.90;;;;;;5138072;27;20046;-80
2022/12/07 06:09:21;;;;;;;6.75;1.63;;;4.40;99.90;;;;;;5156016;27;20046;-80
2022/12/07 06:14:32;;;;;;;6.97;1.50;;;4.20;99.90;;;;;;5156351;27;20069;-79
2022/12/07 06:16:58;;;;;;;6.75;1.13;;;4.40;99.90;;;;;;5156244;27;20129;-79
2022/12/07 06:19:24;;;;;;;8.38;1.25;;;4.20;99.90;;;;;;5156184;27;20043;-79
2022/12/07 06:21:50;;;;;;;11.85;1.23;;;4.30;99.90;;;;;;5137528;27;20042;-79
2022/12/07 06:24:16;;;;;;;8.35;1.23;;;4.10;99.90;;;;;;5156425;27;20068;-79
2022/12/07 06:26:43;;;;;;;11.32;1.58;;;;;;;;;;5155759;27;20042;-79
2022/12/07 06:29:09;;;;;;;7.63;1.17;;;3.90;99.90;;;;;;5155916;27;20089;-79
2022/12/07 06:31:35;;;;;;;7.88;1.10;;;4.00;99.90;;;;;;5155903;27;20090;-79
2022/12/07 06:34:04;;;;;;;6.50;1.45;;;3.90;99.90;;;;;;5137296;27;20058;-79
2022/12/07 06:36:30;;;;;;;8.95;1.23;;;;;;;;;;5155268;27;20051;-79
2022/12/07 06:38:56;;;;;;;5.53;1.20;;;4.00;99.90;;;;;;5155361;27;20138;-79
2022/12/07 06:41:22;;;;;;;15.27;1.35;;;4.10;99.90;;;;;;5137261;27;20371;-80
2022/12/07 06:43:48;;;;;;;10.60;1.63;;;;;;;;;;5155827;27;20379;-79
2022/12/07 06:46:14;;;;;;;;;;;4.50;99.90;;;;;;5156093;27;20039;-80
2022/12/07 06:48:40;;;;;;;19.60;2.72;;;4.60;99.90;;;;;;5155625;27;19934;-79
2022/12/07 06:51:06;;;;;;;21.92;2.40;;;4.60;99.90;;;;;;5136878;27;20050;-79
2022/12/07 06:53:32;;;;;;;15.85;2.33;;;4.90;99.90;;;;;;5155621;27;20390;-79
2022/12/07 06:55:57;;;;;;;11.77;1.65;;;4.60;99.90;;;;;;5137229;27;20083;-79
2022/12/07 06:58:23;;;;;;;5.00;1.17;;;4.60;99.90;;;;;;5137131;27;20042;-79
2022/12/07 07:00:50;;;;;;;9.13;1.42;;;;;;;;;;5155368;27;20752;-79
2022/12/07 07:03:16;;;;;;;14.70;1.60;;;4.50;99.90;;;;;;5155359;27;20375;-79
2022/12/07 07:05:43;;;;;;;5.65;1.23;;;;;;;;;;5151897;27;20046;-79
2022/12/07 07:08:09;;;;;;;4.75;1.25;;;;;;;;;;5152101;27;20550;-80
2022/12/07 07:10:35;;;;;;;8.10;1.40;;;;;;;;;;5135590;27;20566;-79
2022/12/07 07:13:01;;;;;;;8.35;1.30;;;4.20;99.90;;;;;;5154544;27;20129;-80
2022/12/07 07:15:26;;;;;;;6.97;1.10;;;4.30;99.90;;;;;;5135441;27;20121;-80
2022/12/07 07:17:52;;;;;;;7.60;1.20;;;4.20;99.90;;;;;;5135830;27;20053;-79
2022/12/07 07:20:18;;;;;;;13.13;1.80;;;;;;;;;;5154233;27;20038;-79
2022/12/07 07:22:44;;;;;;;7.53;1.30;;;;;;;;;;5153601;27;20099;-79
2022/12/07 07:25:10;;;;;;;11.55;1.70;;;4.00;99.90;;;;;;5118799;27;20106;-79
2022/12/07 07:27:36;;;;;;;4.88;1.42;;;3.90;99.90;;;;;;5153823;27;20043;-79
2022/12/07 07:30:02;;;;;;;6.35;1.20;;;;;;;;;;5127005;27;20038;-75
2022/12/07 07:32:28;;;;;;;;;;;4.00;99.90;;;;;;5151891;27;20078;-73
2022/12/07 07:34:54;;;;;;;11.07;1.60;;;;;;;;;;5153926;27;19923;-74
2022/12/07 07:37:20;;;;;;;12.13;2.15;;;;;;;;;;5153123;27;20122;-73
2022/12/07 07:39:45;;;;;;;16.85;3.08;;;4.20;99.90;;;;;;5151718;27;20042;-77
2022/12/07 07:42:11;;;;;;;14.20;2.28;;;4.40;99.90;;;;;;5135099;27;20061;-75
2022/12/07 07:44:37;;;;;;;12.18;1.95;;;4.40;99.90;;;;;;5152947;27;20054;-73
2022/12/07 07:47:03;;;;;;;16.20;2.20;;;4.40;99.90;;;;;;5134179;27;20030;-78
2022/12/07 07:49:28;;;;;;;15.20;1.77;;;4.30;99.90;;;;;;5151045;27;20031;-78
2022/12/07 07:51:54;;;;;;;15.60;2.47;;;4.30;99.90;;;;;;5135447;27;20058;-73
2022/12/07 07:54:20;;;;;;;19.92;2.22;;;4.60;99.90;;;;;;5151918;27;20287;-77
2022/12/07 07:56:45;;;;;;;9.13;2.25;;;4.70;99.90;;;;;;5133444;27;20474;-74
2022/12/07 07:59:11;;;;;;;12.40;1.88;;;4.90;99.90;;;;;;5153607;27;20675;-77
2022/12/07 08:01:36;;;;;;;10.50;1.50;;;4.90;99.90;;;;;;5135684;27;20390;-77
2022/12/07 08:04:02;;;;;;;11.75;1.58;;;5.10;99.90;;;;;;5135317;27;20107;-76
2022/12/07 08:06:28;;;;;;;16.63;2.03;;;5.10;99.90;;;;;;5153764;27;20050;-79
2022/12/07 08:08:53;;;;;;;13.13;1.60;;;4.80;99.90;;;;;;5153570;27;20087;-79
2022/12/07 08:11:19;;;;;;;8.03;1.80;;;4.80;99.90;;;;;;5153790;27;20106;-79
2022/12/07 08:13:49;;;;;;;11.15;2.92;;;5.00;99.90;;;;;;5153934;27;20284;-79
2022/12/07 08:16:15;;;;;;;13.02;2.97;;;;;;;;;;5153865;27;20099;-79
2022/12/07 08:18:42;;;;;;;11.27;1.73;;;5.10;99.90;;;;;;5153615;27;20087;-81
2022/12/07 08:21:11;;;;;;;10.88;2.00;;;5.10;99.90;;;;;;5153869;27;20113;-78
2022/12/07 08:23:37;;;;;;;11.23;1.92;;;5.10;99.90;;;;;;5154106;27;20094;-79
2022/12/07 08:26:05;;;;;;;13.02;2.25;;;5.50;99.90;;;;;;5153727;27;20043;-80
2022/12/07 08:28:32;;;;;;;12.65;1.70;;;5.40;99.90;;;;;;5153736;27;20051;-79
2022/12/07 08:31:02;;;;;;;17.88;2.78;;;5.20;99.90;;;;;;5153312;27;20144;-78
2022/12/07 08:33:28;;;;;;;10.35;1.50;;;5.20;99.90;;;;;;5117938;27;20435;-78
2022/12/07 08:35:54;;;;;;;5.90;1.25;;;5.20;99.90;;;;;;5135330;27;20055;-80
2022/12/07 08:38:20;;;;;;;4.45;1.10;;;5.10;99.90;;;;;;5153641;27;20090;-78
2022/12/07 08:40:57;;;;;;;2.50;0.98;;;5.10;99.90;;;;;;5153613;27;20101;-79
2022/12/07 08:43:23;;;;;;;8.85;2.08;;;5.10;99.90;;;;;;5134859;27;20505;-79
2022/12/07 08:46:13;;;;;;;2.70;0.85;;;5.00;99.90;;;;;;5153532;27;20121;-82
2022/12/07 08:49:03;;;;;;;6.38;1.58;;;5.00;99.90;;;;;;5134094;27;20090;-81
2022/12/07 08:51:28;;;;;;;5.60;1.10;;;5.00;99.90;;;;;;5153768;27;20061;-81
2022/12/07 08:53:56;;;;;;;4.35;1.27;;;4.80;99.90;;;;;;5153416;27;20047;-81
2022/12/07 08:56:22;;;;;;;4.93;1.20;;;4.70;99.90;;;;;;5134789;27;20075;-81
2022/12/07 08:58:48;;;;;;;2.22;0.80;;;4.90;99.90;;;;;;5135025;27;20042;-81
2022/12/07 09:01:14;;;;;;;5.28;0.90;;;4.90;99.90;;;;;;5136220;27;20099;-81
2022/12/07 09:03:40;;;;;;;5.13;1.00;;;4.70;99.90;;;;;;5157328;27;20625;-80
2022/12/07 09:06:06;;;;;;;5.43;1.25;;;4.70;99.90;;;;;;5139250;27;20076;-80
2022/12/07 09:08:39;;;;;;;6.53;1.10;;;4.60;99.90;;;;;;5138885;27;20054;-80
2022/12/07 09:11:04;;;;;;;5.72;1.00;;;4.90;99.90;;;;;;5139176;27;20050;-80
2022/12/07 09:13:30;;;;;;;5.28;1.02;;;5.00;99.90;;;;;;5138885;27;20051;-80
2022/12/07 09:15:56;;;;;;;8.80;1.10;;;5.10;99.90;;;;;;5138723;27;20103;-80
2022/12/07 09:18:22;;;;;;;7.90;1.40;;;5.20;99.90;;;;;;5138838;27;20090;-80
2022/12/07 09:20:47;;;;;;;8.32;1.23;;;5.00;99.90;;;;;;5157437;27;20049;-81
2022/12/07 09:23:13;;;;;;;10.77;1.33;;;5.10;99.90;;;;;;5157589;27;20099;-80
2022/12/07 09:25:39;;;;;;;8.02;1.00;;;5.10;99.90;;;;;;5157587;27;20494;-79
2022/12/07 09:28:04;;;;;;;8.10;1.30;;;5.20;99.90;;;;;;5157165;27;20502;-80
2022/12/07 09:30:30;;;;;;;7.57;1.35;;;5.50;99.90;;;;;;5138263;27;20042;-80
2022/12/07 09:32:56;;;;;;;14.48;1.58;;;5.40;99.90;;;;;;5156482;27;20112;-80
2022/12/07 09:35:23;;;;;;;9.07;1.95;;;5.60;99.90;;;;;;5121644;27;20482;-80
2022/12/07 09:37:49;;;;;;;10.27;1.58;;;5.70;99.90;;;;;;5156960;27;20374;-80
2022/12/07 09:40:16;;;;;;;14.70;2.03;;;5.50;99.90;;;;;;5138624;27;20049;-80
2022/12/07 09:42:45;;;;;;;8.38;2.80;;;5.80;99.90;;;;;;5156891;27;20042;-80
2022/12/07 09:45:19;;;;;;;15.60;2.65;;;5.50;99.90;;;;;;5156497;27;20046;-80
2022/12/07 09:47:45;;;;;;;12.40;2.33;;;5.70;99.90;;;;;;5138547;27;20391;-80
2022/12/07 09:50:23;;;;;;;17.50;2.10;;;5.90;99.90;;;;;;5156375;27;20414;-80
2022/12/07 09:52:50;;;;;;;13.82;3.05;;;5.80;99.90;;;;;;5156714;27;20051;-80
2022/12/07 09:55:28;;;;;;;9.88;1.35;;;5.90;99.90;;;;;;5156667;27;20051;-80
2022/12/07 09:57:55;;;;;;;13.98;1.80;;;6.10;99.90;;;;;;5156574;27;20047;-80
2022/12/07 10:00:23;;;;;;;10.40;1.83;;;6.20;99.90;;;;;;5156228;27;20088;-80
2022/12/07 10:02:58;;;;;;;9.98;1.83;;;6.30;99.90;;;;;;5156401;27;20051;-81
2022/12/07 10:05:38;;;;;;;6.50;1.95;;;6.20;99.90;;;;;;5156375;27;20053;-79
2022/12/07 10:08:04;;;;;;;9.82;1.58;;;6.80;99.90;;;;;;5138063;27;20081;-80
2022/12/07 10:10:33;;;;;;;9.85;1.55;;;6.40;99.90;;;;;;5156187;27;20038;-79
2022/12/07 10:13:03;;;;;;;10.77;1.17;;;6.40;99.90;;;;;;5155445;27;20089;-79
2022/12/07 10:15:41;;;;;;;8.30;1.67;;;6.50;99.90;;;;;;5156012;27;20155;-80
2022/12/07 10:18:31;;;;;;;10.25;1.73;;;6.80;99.90;;;;;;5120710;27;20394;-78
2022/12/07 10:21:13;;;;;;;10.63;1.33;;;6.80;99.90;;;;;;5156127;27;20387;-80
2022/12/07 10:24:00;;;;;;;9.05;1.33;;;;;;;;;;5156088;27;20126;-78
2022/12/07 10:26:47;;;;;;;11.20;2.25;;;6.20;99.90;;;;;;5137760;27;20062;-80
2022/12/07 10:29:21;;;;;;;;;;;6.60;99.90;;;;;;5155979;27;20046;-79
2022/12/07 10:31:55;;;;;;;4.90;1.75;;;6.30;99.90;;;;;;5155457;27;19923;-79
2022/12/07 10:34:29;;;;;;;10.15;1.38;;;6.50;99.90;;;;;;5155999;27;20051;-79
2022/12/07 10:37:08;;;;;;;6.65;1.00;;;;;;;;;;5137573;27;20043;-78
2022/12/07 10:39:42;;;;;;;5.97;1.00;;;5.70;99.90;;;;;;5155910;27;20035;-80
2022/12/07 10:42:15;;;;;;;4.45;0.95;;;5.40;99.90;;;;;;5137246;27;20509;-80
2022/12/07 10:44:42;;;;;;;6.13;1.25;;;5.80;99.90;;;;;;5137071;27;20051;-81
2022/12/07 10:47:33;;;;;;;5.45;1.08;;;5.30;99.90;;;;;;5153229;27;20490;-80
2022/12/07 10:50:25;;;;;;;3.65;1.00;;;5.10;99.90;;;;;;5153600;27;20134;-80
2022/12/07 10:53:29;;;;;;;3.67;1.10;;;5.40;99.90;;;;;;5135498;27;20043;-79
2022/12/07 10:56:15;;;;;;;7.15;1.83;;;5.60;99.90;;;;;;5153759;27;20046;-80
2022/12/07 10:58:53;;;;;;;10.43;1.10;;;;;;;;;;5135096;27;20487;-80
2022/12/07 11:01:38;;;;;;;10.50;1.83;;;5.70;99.90;;;;;;5153679;27;20049;-79
2022/12/07 11:04:12;;;;;;;11.00;2.28;;;5.70;99.90;;;;;;5136594;27;20053;-80
2022/12/07 11:06:57;;;;;;;10.63;1.55;;;5.80;99.90;;;;;;5155178;27;20095;-79
2022/12/07 11:09:55;;;;;;;7.90;2.25;;;5.40;99.90;;;;;;5154846;27;20721;-79
2022/12/07 11:12:45;;;;;;;15.98;1.83;;;5.80;99.90;;;;;;5154974;27;20122;-78
2022/12/07 11:15:30;;;;;;;12.68;2.10;;;;;;;;;;5155123;27;20050;-78
2022/12/07 11:18:18;;;;;;;11.23;1.75;;;5.90;99.90;;;;;;5136748;27;20391;-78
2022/12/07 11:21:07;;;;;;;6.70;1.10;;;6.10;99.90;;;;;;5155340;27;20038;-77
2022/12/07 11:23:56;;;;;;;10.98;1.65;;;6.30;99.90;;;;;;5155071;27;20879;-79
2022/12/07 11:26:59;;;;;;;9.27;1.40;;;6.10;99.90;;;;;;5154585;27;20047;-77
2022/12/07 11:29:55;;;;;;;8.50;1.00;;;6.50;99.90;;;;;;5154754;27;20152;-78
2022/12/07 11:32:44;;;;;;;11.95;1.25;;;6.50;99.90;;;;;;5154617;27;20486;-77
2022/12/07 11:35:19;;;;;;;5.40;1.20;;;6.40;99.90;;;;;;5154675;27;20103;-77
2022/12/07 11:37:46;;;;;;;11.63;2.10;;;6.40;99.90;;;;;;5154672;27;20046;-77
2022/12/07 11:40:35;;;;;;;8.32;1.27;;;6.20;99.90;;;;;;5154603;27;20122;-78
2022/12/07 11:43:07;;;;;;;6.18;1.30;;;6.40;99.90;;;;;;5136088;27;20383;-77
2022/12/07 11:45:34;;;;;;;8.40;2.30;;;6.50;99.90;;;;;;5154486;27;20123;-77
2022/12/07 11:48:11;;;;;;;9.57;1.73;;;6.40;99.90;;;;;;5154103;27;20402;-76
2022/12/07 11:50:54;;;;;;;8.00;1.42;;;6.40;99.90;;;;;;5154395;27;20121;-77
2022/12/07 11:53:27;;;;;;;10.23;1.40;;;6.40;99.90;;;;;;5154389;27;20058;-78
2022/12/07 11:56:06;;;;;;;10.75;1.40;;;;;;;;;;5154009;27;20046;-76
2022/12/07 11:58:47;;;;;;;10.43;1.77;;;6.20;99.90;;;;;;5135499;27;20551;-77
2022/12/07 12:01:25;;;;;;;5.72;1.45;;;6.10;99.90;;;;;;5154230;27;20062;-77
2022/12/07 12:03:56;;;;;;;9.73;1.30;;;6.10;99.90;;;;;;5154117;27;20050;-77
2022/12/07 12:06:22;;;;;;;14.02;1.67;;;6.20;99.90;;;;;;5154167;27;20139;-76
2022/12/07 12:08:56;;;;;;;10.82;1.40;;;6.10;99.90;;;;;;5153941;27;20034;-76
2022/12/07 12:11:36;;;;;;;10.65;1.70;;;6.20;99.90;;;;;;5153741;27;20053;-77
2022/12/07 12:14:32;;;;;;;8.57;1.70;;;6.30;99.90;;;;;;5153998;27;20043;-76
2022/12/07 12:17:32;;;;;;;12.55;2.53;;;6.30;99.90;;;;;;5154001;27;20121;-76
2022/12/07 12:20:19;;;;;;;9.05;1.10;;;6.30;99.90;;;;;;5153997;27;20035;-76
2022/12/07 12:22:59;;;;;;;9.65;1.67;;;5.70;99.90;;;;;;5153915;27;20038;-79
2022/12/07 12:25:54;;;;;;;9.07;1.17;;;6.20;99.90;;;;;;5134950;27;20073;-80
2022/12/07 12:28:33;;;;;;;9.82;1.50;;;5.90;99.90;;;;;;5150241;27;20055;-79
2022/12/07 12:31:13;;;;;;;4.47;0.90;;;5.90;99.90;;;;;;5135420;27;20042;-79
2022/12/07 12:33:47;;;;;;;4.45;1.08;;;5.90;99.90;;;;;;5134928;27;20138;-79
2022/12/07 12:36:15;;;;;;;5.72;1.30;;;5.40;99.90;;;;;;5134665;27;20080;-79
2022/12/07 12:39:06;;;;;;;5.95;1.00;;;5.80;99.90;;;;;;5134995;27;20428;-79
2022/12/07 12:44:15;;;;;;;7.63;1.00;;;;;;;;;;5153606;27;20379;-79
2022/12/07 12:46:49;;;;;;;7.25;1.25;;;5.90;99.90;;;;;;5153503;27;20383;-79
2022/12/07 12:49:21;;;;;;;4.75;0.77;;;5.70;99.90;;;;;;5153355;27;20475;-78
2022/12/07 12:51:58;;;;;;;11.10;1.45;;;5.90;99.90;;;;;;5153135;27;20399;-77
2022/12/07 12:54:27;;;;;;;6.60;1.10;;;6.00;99.90;;;;;;5134716;27;20051;-78
2022/12/07 12:57:04;;;;;;;12.73;1.80;;;6.40;99.90;;;;;;5153445;27;20047;-78
2022/12/07 12:59:56;;;;;;;6.28;1.00;;;6.30;99.90;;;;;;5135110;27;20057;-79
2022/12/07 13:02:47;;;;;;;2.58;0.88;;;6.10;99.90;;;;;;5153225;27;20042;-78
2022/12/07 13:05:13;;;;;;;4.47;1.10;;;5.90;99.90;;;;;;5153453;27;20043;-78
2022/12/07 13:07:48;;;;;;;3.55;0.93;;;6.10;99.90;;;;;;5135131;27;20802;-80
2022/12/07 13:10:23;;;;;;;8.80;1.40;;;5.60;99.90;;;;;;5153310;27;20051;-72
2022/12/07 13:13:19;;;;;;;9.90;1.27;;;5.70;99.90;;;;;;5153391;27;20562;-79
2022/12/07 13:15:55;;;;;;;7.82;1.25;;;;;;;;;;5153194;27;20107;-80
2022/12/07 13:18:27;;;;;;;7.28;1.15;;;5.10;99.90;;;;;;5135218;27;20047;-80
2022/12/07 13:21:07;;;;;;;11.30;1.30;;;5.10;99.90;;;;;;5153468;27;20047;-80
2022/12/07 13:23:43;;;;;;;15.07;1.35;;;5.00;99.90;;;;;;5152992;27;20038;-79
2022/12/07 13:26:25;;;;;;;6.15;1.15;;;4.80;99.90;;;;;;5153278;27;20086;-79
2022/12/07 13:29:10;;;;;;;8.07;1.35;;;;;;;;;;5134747;27;20069;-80
2022/12/07 13:31:56;;;;;;;5.15;0.93;;;4.90;99.90;;;;;;5152913;27;20046;-80